sensor_id;sensor_type;location;lat;lon;timestamp;P1;durP1;ratioP1;P2;durP2;ratioP2
18082;SDS011;9168;51.194;6.840;2023-07-20T00:00:09;11.10;;;3.10;;
18082;SDS011;9168;51.194;6.840;2023-07-20T00:02:39;9.48;;;3.38;;
18082;SDS011;9168;51.194;6.840;2023-07-20T00:05:06;9.73;;;3.55;;
18082;SDS011;9168;51.194;6.840;2023-07-20T00:07:33;7.40;;;3.47;;
18082;SDS011;9168;51.194;6.840;2023-07-20T00:09:59;8.50;;;3.50;;
18082;SDS011;9168;51.194;6.840;2023-07-20T00:12:26;8.35;;;3.40;;
18082;SDS011;9168;51.194;6.840;2023-07-20T00:14:55;9.93;;;3.70;;
18082;SDS011;9168;51.194;6.840;2023-07-20T00:17:22;12.98;;;4.03;;
18082;SDS011;9168;51.194;6.840;2023-07-20T00:19:48;8.32;;;3.20;;
18082;SDS011;9168;51.194;6.840;2023-07-20T00:22:15;9.20;;;3.17;;
18082;SDS011;9168;51.194;6.840;2023-07-20T00:24:42;13.18;;;3.90;;
18082;SDS011;9168;51.194;6.840;2023-07-20T00:27:09;10.48;;;3.92;;
18082;SDS011;9168;51.194;6.840;2023-07-20T00:29:36;16.30;;;4.32;;
18082;SDS011;9168;51.194;6.840;2023-07-20T00:32:05;18.10;;;4.15;;
18082;SDS011;9168;51.194;6.840;2023-07-20T00:34:32;9.63;;;3.92;;
18082;SDS011;9168;51.194;6.840;2023-07-20T00:36:59;10.30;;;3.92;;
18082;SDS011;9168;51.194;6.840;2023-07-20T00:39:26;11.63;;;3.67;;
18082;SDS011;9168;51.194;6.840;2023-07-20T00:41:53;11.80;;;3.95;;
18082;SDS011;9168;51.194;6.840;2023-07-20T00:44:19;10.18;;;3.63;;
18082;SDS011;9168;51.194;6.840;2023-07-20T00:46:46;8.63;;;3.85;;
18082;SDS011;9168;51.194;6.840;2023-07-20T00:49:15;10.23;;;3.70;;
18082;SDS011;9168;51.194;6.840;2023-07-20T00:51:46;9.73;;;3.63;;
18082;SDS011;9168;51.194;6.840;2023-07-20T00:54:14;9.05;;;3.85;;
18082;SDS011;9168;51.194;6.840;2023-07-20T00:56:41;11.98;;;3.90;;
18082;SDS011;9168;51.194;6.840;2023-07-20T00:59:09;9.82;;;3.22;;
18082;SDS011;9168;51.194;6.840;2023-07-20T01:01:36;10.30;;;3.50;;
18082;SDS011;9168;51.194;6.840;2023-07-20T01:04:03;9.35;;;3.25;;
18082;SDS011;9168;51.194;6.840;2023-07-20T01:06:34;7.95;;;2.95;;
18082;SDS011;9168;51.194;6.840;2023-07-20T01:09:12;7.25;;;3.28;;
18082;SDS011;9168;51.194;6.840;2023-07-20T01:11:43;7.03;;;3.13;;
18082;SDS011;9168;51.194;6.840;2023-07-20T01:14:18;11.93;;;3.42;;
18082;SDS011;9168;51.194;6.840;2023-07-20T01:16:45;7.82;;;3.05;;
18082;SDS011;9168;51.194;6.840;2023-07-20T01:19:14;8.23;;;3.00;;
18082;SDS011;9168;51.194;6.840;2023-07-20T01:21:44;9.65;;;3.75;;
18082;SDS011;9168;51.194;6.840;2023-07-20T01:24:31;11.98;;;3.80;;
18082;SDS011;9168;51.194;6.840;2023-07-20T01:27:36;8.73;;;3.40;;
18082;SDS011;9168;51.194;6.840;2023-07-20T01:30:35;10.05;;;3.78;;
18082;SDS011;9168;51.194;6.840;2023-07-20T01:33:15;8.68;;;3.95;;
18082;SDS011;9168;51.194;6.840;2023-07-20T01:35:44;9.85;;;3.85;;
18082;SDS011;9168;51.194;6.840;2023-07-20T01:38:13;10.05;;;4.00;;
18082;SDS011;9168;51.194;6.840;2023-07-20T01:40:42;9.90;;;3.83;;
18082;SDS011;9168;51.194;6.840;2023-07-20T01:43:09;9.65;;;4.00;;
18082;SDS011;9168;51.194;6.840;2023-07-20T01:45:36;11.07;;;4.15;;
18082;SDS011;9168;51.194;6.840;2023-07-20T01:48:03;9.02;;;4.05;;
18082;SDS011;9168;51.194;6.840;2023-07-20T01:50:32;18.80;;;4.85;;
18082;SDS011;9168;51.194;6.840;2023-07-20T01:52:59;10.45;;;4.03;;
18082;SDS011;9168;51.194;6.840;2023-07-20T01:55:26;7.60;;;4.03;;
18082;SDS011;9168;51.194;6.840;2023-07-20T01:57:54;9.10;;;4.13;;
18082;SDS011;9168;51.194;6.840;2023-07-20T02:00:21;7.15;;;3.80;;
18082;SDS011;9168;51.194;6.840;2023-07-20T02:02:49;9.02;;;4.25;;
18082;SDS011;9168;51.194;6.840;2023-07-20T02:05:16;15.07;;;4.90;;
18082;SDS011;9168;51.194;6.840;2023-07-20T02:07:45;10.00;;;4.30;;
18082;SDS011;9168;51.194;6.840;2023-07-20T02:10:12;10.52;;;4.30;;
18082;SDS011;9168;51.194;6.840;2023-07-20T02:12:39;7.95;;;3.63;;
18082;SDS011;9168;51.194;6.840;2023-07-20T02:15:06;10.88;;;3.75;;
18082;SDS011;9168;51.194;6.840;2023-07-20T02:17:34;14.60;;;4.38;;
18082;SDS011;9168;51.194;6.840;2023-07-20T02:20:02;15.63;;;3.90;;
18082;SDS011;9168;51.194;6.840;2023-07-20T02:22:29;10.00;;;3.83;;
18082;SDS011;9168;51.194;6.840;2023-07-20T02:24:58;7.28;;;3.85;;
18082;SDS011;9168;51.194;6.840;2023-07-20T02:27:24;11.82;;;3.97;;
18082;SDS011;9168;51.194;6.840;2023-07-20T02:29:51;8.65;;;3.70;;
18082;SDS011;9168;51.194;6.840;2023-07-20T02:32:18;8.98;;;3.83;;
18082;SDS011;9168;51.194;6.840;2023-07-20T02:34:45;6.65;;;3.47;;
18082;SDS011;9168;51.194;6.840;2023-07-20T02:37:12;12.27;;;3.95;;
18082;SDS011;9168;51.194;6.840;2023-07-20T02:39:39;8.57;;;3.85;;
18082;SDS011;9168;51.194;6.840;2023-07-20T02:42:07;7.90;;;3.95;;
18082;SDS011;9168;51.194;6.840;2023-07-20T02:44:34;10.35;;;3.78;;
18082;SDS011;9168;51.194;6.840;2023-07-20T02:47:01;8.95;;;3.47;;
18082;SDS011;9168;51.194;6.840;2023-07-20T02:49:28;7.13;;;3.45;;
18082;SDS011;9168;51.194;6.840;2023-07-20T02:51:55;7.38;;;3.88;;
18082;SDS011;9168;51.194;6.840;2023-07-20T02:54:22;9.63;;;3.50;;
18082;SDS011;9168;51.194;6.840;2023-07-20T02:56:49;13.13;;;4.32;;
18082;SDS011;9168;51.194;6.840;2023-07-20T02:59:17;9.15;;;4.28;;
18082;SDS011;9168;51.194;6.840;2023-07-20T03:01:44;10.05;;;3.97;;
18082;SDS011;9168;51.194;6.840;2023-07-20T03:04:11;11.27;;;4.15;;
18082;SDS011;9168;51.194;6.840;2023-07-20T03:06:38;11.57;;;4.40;;
18082;SDS011;9168;51.194;6.840;2023-07-20T03:09:05;9.90;;;4.57;;
18082;SDS011;9168;51.194;6.840;2023-07-20T03:11:32;8.57;;;4.43;;
18082;SDS011;9168;51.194;6.840;2023-07-20T03:13:59;14.38;;;4.18;;
18082;SDS011;9168;51.194;6.840;2023-07-20T03:16:28;13.60;;;4.80;;
18082;SDS011;9168;51.194;6.840;2023-07-20T03:18:57;9.75;;;4.40;;
18082;SDS011;9168;51.194;6.840;2023-07-20T03:21:24;9.35;;;4.60;;
18082;SDS011;9168;51.194;6.840;2023-07-20T03:23:51;9.90;;;4.45;;
18082;SDS011;9168;51.194;6.840;2023-07-20T03:26:19;12.85;;;4.68;;
18082;SDS011;9168;51.194;6.840;2023-07-20T03:28:45;11.10;;;4.40;;
18082;SDS011;9168;51.194;6.840;2023-07-20T03:31:12;10.07;;;4.80;;
18082;SDS011;9168;51.194;6.840;2023-07-20T03:33:42;14.82;;;4.85;;
18082;SDS011;9168;51.194;6.840;2023-07-20T03:36:09;16.73;;;5.40;;
18082;SDS011;9168;51.194;6.840;2023-07-20T03:38:36;10.45;;;4.57;;
18082;SDS011;9168;51.194;6.840;2023-07-20T03:41:03;11.35;;;4.57;;
18082;SDS011;9168;51.194;6.840;2023-07-20T03:43:30;10.63;;;4.53;;
18082;SDS011;9168;51.194;6.840;2023-07-20T03:45:56;11.60;;;4.82;;
18082;SDS011;9168;51.194;6.840;2023-07-20T03:48:24;14.25;;;4.30;;
18082;SDS011;9168;51.194;6.840;2023-07-20T03:50:53;10.02;;;4.40;;
18082;SDS011;9168;51.194;6.840;2023-07-20T03:53:20;11.40;;;5.05;;
18082;SDS011;9168;51.194;6.840;2023-07-20T03:55:47;10.68;;;4.55;;
18082;SDS011;9168;51.194;6.840;2023-07-20T03:58:15;15.77;;;5.80;;
18082;SDS011;9168;51.194;6.840;2023-07-20T04:00:44;16.08;;;4.88;;
18082;SDS011;9168;51.194;6.840;2023-07-20T04:03:12;10.40;;;4.53;;
18082;SDS011;9168;51.194;6.840;2023-07-20T04:05:39;11.45;;;4.30;;
18082;SDS011;9168;51.194;6.840;2023-07-20T04:08:07;12.65;;;5.03;;
18082;SDS011;9168;51.194;6.840;2023-07-20T04:10:36;12.48;;;4.85;;
18082;SDS011;9168;51.194;6.840;2023-07-20T04:13:03;10.10;;;4.47;;
18082;SDS011;9168;51.194;6.840;2023-07-20T04:15:30;13.00;;;5.00;;
18082;SDS011;9168;51.194;6.840;2023-07-20T04:17:57;16.80;;;4.47;;
18082;SDS011;9168;51.194;6.840;2023-07-20T04:20:26;9.25;;;4.50;;
18082;SDS011;9168;51.194;6.840;2023-07-20T04:22:52;11.70;;;4.57;;
18082;SDS011;9168;51.194;6.840;2023-07-20T04:25:21;13.88;;;5.07;;
18082;SDS011;9168;51.194;6.840;2023-07-20T04:27:48;13.15;;;5.45;;
18082;SDS011;9168;51.194;6.840;2023-07-20T04:30:17;12.70;;;5.57;;
18082;SDS011;9168;51.194;6.840;2023-07-20T04:32:45;17.65;;;5.88;;
18082;SDS011;9168;51.194;6.840;2023-07-20T04:35:16;15.30;;;6.22;;
18082;SDS011;9168;51.194;6.840;2023-07-20T04:37:44;16.25;;;5.72;;
18082;SDS011;9168;51.194;6.840;2023-07-20T04:40:12;15.43;;;5.60;;
18082;SDS011;9168;51.194;6.840;2023-07-20T04:42:40;11.30;;;5.45;;
18082;SDS011;9168;51.194;6.840;2023-07-20T04:45:08;15.73;;;6.05;;
18082;SDS011;9168;51.194;6.840;2023-07-20T04:47:35;12.63;;;6.15;;
18082;SDS011;9168;51.194;6.840;2023-07-20T04:50:02;14.55;;;6.03;;
18082;SDS011;9168;51.194;6.840;2023-07-20T04:52:29;15.65;;;5.70;;
18082;SDS011;9168;51.194;6.840;2023-07-20T04:54:57;23.00;;;5.95;;
18082;SDS011;9168;51.194;6.840;2023-07-20T04:57:24;16.10;;;5.10;;
18082;SDS011;9168;51.194;6.840;2023-07-20T04:59:53;13.32;;;5.60;;
18082;SDS011;9168;51.194;6.840;2023-07-20T05:02:19;15.50;;;5.90;;
18082;SDS011;9168;51.194;6.840;2023-07-20T05:04:46;10.15;;;4.88;;
18082;SDS011;9168;51.194;6.840;2023-07-20T05:07:13;11.18;;;5.28;;
18082;SDS011;9168;51.194;6.840;2023-07-20T05:09:40;13.57;;;5.15;;
18082;SDS011;9168;51.194;6.840;2023-07-20T05:12:07;15.38;;;5.63;;
18082;SDS011;9168;51.194;6.840;2023-07-20T05:14:34;10.25;;;5.25;;
18082;SDS011;9168;51.194;6.840;2023-07-20T05:17:02;15.88;;;6.90;;
18082;SDS011;9168;51.194;6.840;2023-07-20T05:19:29;14.10;;;5.90;;
18082;SDS011;9168;51.194;6.840;2023-07-20T05:21:56;17.75;;;7.10;;
18082;SDS011;9168;51.194;6.840;2023-07-20T05:24:23;15.50;;;7.45;;
18082;SDS011;9168;51.194;6.840;2023-07-20T05:26:50;14.77;;;9.05;;
18082;SDS011;9168;51.194;6.840;2023-07-20T05:29:17;14.57;;;9.32;;
18082;SDS011;9168;51.194;6.840;2023-07-20T05:31:44;21.23;;;10.48;;
18082;SDS011;9168;51.194;6.840;2023-07-20T05:34:12;18.20;;;9.63;;
18082;SDS011;9168;51.194;6.840;2023-07-20T05:36:39;20.33;;;10.85;;
18082;SDS011;9168;51.194;6.840;2023-07-20T05:39:06;18.73;;;10.50;;
18082;SDS011;9168;51.194;6.840;2023-07-20T05:41:33;18.77;;;9.52;;
18082;SDS011;9168;51.194;6.840;2023-07-20T05:43:59;26.52;;;11.15;;
18082;SDS011;9168;51.194;6.840;2023-07-20T05:46:26;24.83;;;10.35;;
18082;SDS011;9168;51.194;6.840;2023-07-20T05:48:53;36.42;;;12.50;;
18082;SDS011;9168;51.194;6.840;2023-07-20T05:51:21;26.52;;;11.35;;
18082;SDS011;9168;51.194;6.840;2023-07-20T05:53:48;21.35;;;11.93;;
18082;SDS011;9168;51.194;6.840;2023-07-20T05:56:15;16.88;;;10.10;;
18082;SDS011;9168;51.194;6.840;2023-07-20T05:58:42;21.52;;;10.80;;
18082;SDS011;9168;51.194;6.840;2023-07-20T06:01:10;20.45;;;10.90;;
18082;SDS011;9168;51.194;6.840;2023-07-20T06:03:37;18.58;;;10.05;;
18082;SDS011;9168;51.194;6.840;2023-07-20T06:06:04;21.17;;;10.25;;
18082;SDS011;9168;51.194;6.840;2023-07-20T06:08:33;22.08;;;11.57;;
18082;SDS011;9168;51.194;6.840;2023-07-20T06:10:59;25.33;;;10.98;;
18082;SDS011;9168;51.194;6.840;2023-07-20T06:13:26;16.35;;;9.13;;
18082;SDS011;9168;51.194;6.840;2023-07-20T06:15:53;21.48;;;10.80;;
18082;SDS011;9168;51.194;6.840;2023-07-20T06:18:21;17.73;;;9.80;;
18082;SDS011;9168;51.194;6.840;2023-07-20T06:20:49;17.92;;;9.23;;
18082;SDS011;9168;51.194;6.840;2023-07-20T06:23:16;12.75;;;7.50;;
18082;SDS011;9168;51.194;6.840;2023-07-20T06:25:46;15.50;;;7.75;;
18082;SDS011;9168;51.194;6.840;2023-07-20T06:28:13;12.70;;;7.00;;
18082;SDS011;9168;51.194;6.840;2023-07-20T06:30:40;15.73;;;7.53;;
18082;SDS011;9168;51.194;6.840;2023-07-20T06:33:07;19.67;;;9.40;;
18082;SDS011;9168;51.194;6.840;2023-07-20T06:35:34;19.17;;;8.57;;
18082;SDS011;9168;51.194;6.840;2023-07-20T06:38:01;17.95;;;8.60;;
18082;SDS011;9168;51.194;6.840;2023-07-20T06:40:28;12.93;;;7.93;;
18082;SDS011;9168;51.194;6.840;2023-07-20T06:42:57;14.13;;;7.78;;
18082;SDS011;9168;51.194;6.840;2023-07-20T06:45:24;19.67;;;8.35;;
18082;SDS011;9168;51.194;6.840;2023-07-20T06:47:51;15.40;;;7.90;;
18082;SDS011;9168;51.194;6.840;2023-07-20T06:50:17;18.92;;;7.85;;
18082;SDS011;9168;51.194;6.840;2023-07-20T06:52:44;21.70;;;7.78;;
18082;SDS011;9168;51.194;6.840;2023-07-20T06:55:13;15.60;;;7.18;;
18082;SDS011;9168;51.194;6.840;2023-07-20T06:57:40;14.20;;;7.38;;
18082;SDS011;9168;51.194;6.840;2023-07-20T07:00:09;16.77;;;6.75;;
18082;SDS011;9168;51.194;6.840;2023-07-20T07:02:37;11.98;;;5.95;;
18082;SDS011;9168;51.194;6.840;2023-07-20T07:05:04;11.80;;;5.47;;
18082;SDS011;9168;51.194;6.840;2023-07-20T07:07:32;12.52;;;4.70;;
18082;SDS011;9168;51.194;6.840;2023-07-20T07:09:59;7.47;;;4.50;;
18082;SDS011;9168;51.194;6.840;2023-07-20T07:12:29;7.88;;;4.25;;
18082;SDS011;9168;51.194;6.840;2023-07-20T07:14:56;9.20;;;4.10;;
18082;SDS011;9168;51.194;6.840;2023-07-20T07:17:24;9.48;;;4.07;;
18082;SDS011;9168;51.194;6.840;2023-07-20T07:19:51;7.50;;;4.18;;
18082;SDS011;9168;51.194;6.840;2023-07-20T07:22:19;5.93;;;3.80;;
18082;SDS011;9168;51.194;6.840;2023-07-20T07:24:46;6.45;;;3.80;;
18082;SDS011;9168;51.194;6.840;2023-07-20T07:27:16;12.05;;;3.88;;
18082;SDS011;9168;51.194;6.840;2023-07-20T07:29:43;8.60;;;4.15;;
18082;SDS011;9168;51.194;6.840;2023-07-20T07:32:10;5.45;;;3.15;;
18082;SDS011;9168;51.194;6.840;2023-07-20T07:34:38;6.60;;;3.38;;
18082;SDS011;9168;51.194;6.840;2023-07-20T07:37:05;7.70;;;3.25;;
18082;SDS011;9168;51.194;6.840;2023-07-20T07:39:32;6.00;;;3.25;;
18082;SDS011;9168;51.194;6.840;2023-07-20T07:41:59;6.18;;;3.53;;
18082;SDS011;9168;51.194;6.840;2023-07-20T07:44:26;7.22;;;3.97;;
18082;SDS011;9168;51.194;6.840;2023-07-20T07:46:53;10.32;;;4.30;;
18082;SDS011;9168;51.194;6.840;2023-07-20T07:49:20;7.03;;;3.65;;
18082;SDS011;9168;51.194;6.840;2023-07-20T07:51:48;7.35;;;2.70;;
18082;SDS011;9168;51.194;6.840;2023-07-20T07:54:16;6.35;;;2.78;;
18082;SDS011;9168;51.194;6.840;2023-07-20T07:56:43;19.60;;;3.00;;
18082;SDS011;9168;51.194;6.840;2023-07-20T07:59:10;5.63;;;2.22;;
18082;SDS011;9168;51.194;6.840;2023-07-20T08:01:37;4.65;;;2.15;;
18082;SDS011;9168;51.194;6.840;2023-07-20T08:04:04;6.38;;;2.75;;
18082;SDS011;9168;51.194;6.840;2023-07-20T08:06:31;4.20;;;2.55;;
18082;SDS011;9168;51.194;6.840;2023-07-20T08:08:59;6.95;;;2.47;;
18082;SDS011;9168;51.194;6.840;2023-07-20T08:11:28;4.68;;;2.25;;
18082;SDS011;9168;51.194;6.840;2023-07-20T08:13:58;6.07;;;2.17;;
18082;SDS011;9168;51.194;6.840;2023-07-20T08:16:25;6.22;;;2.28;;
18082;SDS011;9168;51.194;6.840;2023-07-20T08:18:52;13.55;;;2.80;;
18082;SDS011;9168;51.194;6.840;2023-07-20T08:21:19;12.95;;;2.80;;
18082;SDS011;9168;51.194;6.840;2023-07-20T08:23:46;3.53;;;1.92;;
18082;SDS011;9168;51.194;6.840;2023-07-20T08:26:14;2.78;;;1.35;;
18082;SDS011;9168;51.194;6.840;2023-07-20T08:28:42;3.92;;;1.63;;
18082;SDS011;9168;51.194;6.840;2023-07-20T08:31:09;2.28;;;1.67;;
18082;SDS011;9168;51.194;6.840;2023-07-20T08:33:36;2.05;;;1.30;;
18082;SDS011;9168;51.194;6.840;2023-07-20T08:36:03;2.58;;;1.30;;
18082;SDS011;9168;51.194;6.840;2023-07-20T08:38:30;4.70;;;1.55;;
18082;SDS011;9168;51.194;6.840;2023-07-20T08:40:58;4.13;;;1.20;;
18082;SDS011;9168;51.194;6.840;2023-07-20T08:43:26;3.38;;;1.27;;
18082;SDS011;9168;51.194;6.840;2023-07-20T08:45:54;2.30;;;1.10;;
18082;SDS011;9168;51.194;6.840;2023-07-20T08:48:22;2.17;;;1.10;;
18082;SDS011;9168;51.194;6.840;2023-07-20T08:50:51;3.33;;;1.20;;
18082;SDS011;9168;51.194;6.840;2023-07-20T08:53:18;1.58;;;1.23;;
18082;SDS011;9168;51.194;6.840;2023-07-20T08:55:46;3.25;;;1.25;;
18082;SDS011;9168;51.194;6.840;2023-07-20T08:58:16;1.88;;;1.02;;
18082;SDS011;9168;51.194;6.840;2023-07-20T09:00:45;5.20;;;1.10;;
18082;SDS011;9168;51.194;6.840;2023-07-20T09:03:17;1.30;;;0.88;;
18082;SDS011;9168;51.194;6.840;2023-07-20T09:05:45;7.07;;;1.25;;
18082;SDS011;9168;51.194;6.840;2023-07-20T09:08:12;2.35;;;1.08;;
18082;SDS011;9168;51.194;6.840;2023-07-20T09:10:39;2.92;;;1.10;;
18082;SDS011;9168;51.194;6.840;2023-07-20T09:13:06;2.25;;;1.20;;
18082;SDS011;9168;51.194;6.840;2023-07-20T09:15:33;6.32;;;1.58;;
18082;SDS011;9168;51.194;6.840;2023-07-20T09:18:02;3.58;;;1.20;;
18082;SDS011;9168;51.194;6.840;2023-07-20T09:20:30;4.35;;;1.35;;
18082;SDS011;9168;51.194;6.840;2023-07-20T09:22:59;5.43;;;1.02;;
18082;SDS011;9168;51.194;6.840;2023-07-20T09:25:30;3.83;;;1.30;;
18082;SDS011;9168;51.194;6.840;2023-07-20T09:28:01;2.63;;;1.35;;
18082;SDS011;9168;51.194;6.840;2023-07-20T09:30:29;2.67;;;1.33;;
18082;SDS011;9168;51.194;6.840;2023-07-20T09:32:56;2.25;;;1.30;;
18082;SDS011;9168;51.194;6.840;2023-07-20T09:35:25;2.13;;;1.40;;
18082;SDS011;9168;51.194;6.840;2023-07-20T09:37:53;3.10;;;1.50;;
18082;SDS011;9168;51.194;6.840;2023-07-20T09:40:23;2.40;;;1.20;;
18082;SDS011;9168;51.194;6.840;2023-07-20T09:42:51;3.50;;;1.52;;
18082;SDS011;9168;51.194;6.840;2023-07-20T09:45:27;2.15;;;1.20;;
18082;SDS011;9168;51.194;6.840;2023-07-20T09:48:00;2.33;;;1.25;;
18082;SDS011;9168;51.194;6.840;2023-07-20T09:50:31;1.10;;;1.00;;
18082;SDS011;9168;51.194;6.840;2023-07-20T09:52:58;2.35;;;1.20;;
18082;SDS011;9168;51.194;6.840;2023-07-20T09:55:26;3.58;;;1.15;;
18082;SDS011;9168;51.194;6.840;2023-07-20T09:57:54;2.75;;;1.20;;
18082;SDS011;9168;51.194;6.840;2023-07-20T10:00:22;3.13;;;1.20;;
18082;SDS011;9168;51.194;6.840;2023-07-20T10:02:49;2.17;;;1.15;;
18082;SDS011;9168;51.194;6.840;2023-07-20T10:05:19;2.20;;;1.13;;
18082;SDS011;9168;51.194;6.840;2023-07-20T10:07:49;4.13;;;1.85;;
18082;SDS011;9168;51.194;6.840;2023-07-20T10:10:17;3.60;;;1.63;;
18082;SDS011;9168;51.194;6.840;2023-07-20T10:12:46;2.17;;;1.13;;
18082;SDS011;9168;51.194;6.840;2023-07-20T10:15:16;2.88;;;1.55;;
18082;SDS011;9168;51.194;6.840;2023-07-20T10:17:49;3.05;;;1.33;;
18082;SDS011;9168;51.194;6.840;2023-07-20T10:20:25;4.65;;;1.27;;
18082;SDS011;9168;51.194;6.840;2023-07-20T10:22:54;1.60;;;1.27;;
18082;SDS011;9168;51.194;6.840;2023-07-20T10:25:23;4.07;;;1.10;;
18082;SDS011;9168;51.194;6.840;2023-07-20T10:27:50;3.03;;;1.25;;
18082;SDS011;9168;51.194;6.840;2023-07-20T10:30:17;1.70;;;1.00;;
18082;SDS011;9168;51.194;6.840;2023-07-20T10:32:45;2.00;;;1.23;;
18082;SDS011;9168;51.194;6.840;2023-07-20T10:35:13;2.97;;;1.48;;
18082;SDS011;9168;51.194;6.840;2023-07-20T10:37:59;3.00;;;1.40;;
18082;SDS011;9168;51.194;6.840;2023-07-20T10:40:31;2.65;;;1.00;;
18082;SDS011;9168;51.194;6.840;2023-07-20T10:43:00;4.63;;;1.13;;
18082;SDS011;9168;51.194;6.840;2023-07-20T10:45:41;3.75;;;1.10;;
18082;SDS011;9168;51.194;6.840;2023-07-20T10:48:14;2.53;;;1.30;;
18082;SDS011;9168;51.194;6.840;2023-07-20T10:50:42;1.73;;;1.20;;
18082;SDS011;9168;51.194;6.840;2023-07-20T10:53:11;1.70;;;1.17;;
18082;SDS011;9168;51.194;6.840;2023-07-20T10:55:40;1.67;;;1.20;;
18082;SDS011;9168;51.194;6.840;2023-07-20T10:58:11;1.13;;;0.98;;
18082;SDS011;9168;51.194;6.840;2023-07-20T11:03:27;9.80;;;1.77;;
18082;SDS011;9168;51.194;6.840;2023-07-20T11:05:56;3.97;;;1.50;;
18082;SDS011;9168;51.194;6.840;2023-07-20T11:11:23;1.33;;;1.10;;
18082;SDS011;9168;51.194;6.840;2023-07-20T11:13:54;2.65;;;1.30;;
18082;SDS011;9168;51.194;6.840;2023-07-20T11:16:32;1.27;;;1.17;;
18082;SDS011;9168;51.194;6.840;2023-07-20T11:19:00;3.25;;;1.30;;
18082;SDS011;9168;51.194;6.840;2023-07-20T11:21:27;1.55;;;1.30;;
18082;SDS011;9168;51.194;6.840;2023-07-20T11:23:56;3.80;;;1.30;;
18082;SDS011;9168;51.194;6.840;2023-07-20T11:26:23;6.53;;;1.20;;
18082;SDS011;9168;51.194;6.840;2023-07-20T11:28:50;7.00;;;1.35;;
18082;SDS011;9168;51.194;6.840;2023-07-20T11:31:17;2.35;;;1.33;;
18082;SDS011;9168;51.194;6.840;2023-07-20T11:33:44;4.65;;;1.52;;
18082;SDS011;9168;51.194;6.840;2023-07-20T11:36:12;1.95;;;1.50;;
18082;SDS011;9168;51.194;6.840;2023-07-20T11:38:40;5.05;;;1.42;;
18082;SDS011;9168;51.194;6.840;2023-07-20T11:41:10;1.23;;;1.13;;
18082;SDS011;9168;51.194;6.840;2023-07-20T11:43:38;2.17;;;1.48;;
18082;SDS011;9168;51.194;6.840;2023-07-20T11:46:07;3.17;;;1.20;;
18082;SDS011;9168;51.194;6.840;2023-07-20T11:48:35;1.88;;;1.30;;
18082;SDS011;9168;51.194;6.840;2023-07-20T11:51:02;5.90;;;1.27;;
18082;SDS011;9168;51.194;6.840;2023-07-20T11:53:30;4.05;;;1.20;;
18082;SDS011;9168;51.194;6.840;2023-07-20T11:55:58;3.17;;;1.30;;
18082;SDS011;9168;51.194;6.840;2023-07-20T11:58:27;3.65;;;1.50;;
18082;SDS011;9168;51.194;6.840;2023-07-20T12:00:54;3.30;;;1.50;;
18082;SDS011;9168;51.194;6.840;2023-07-20T12:03:22;1.42;;;1.27;;
18082;SDS011;9168;51.194;6.840;2023-07-20T12:05:48;2.47;;;1.45;;
18082;SDS011;9168;51.194;6.840;2023-07-20T12:08:16;1.50;;;1.40;;
18082;SDS011;9168;51.194;6.840;2023-07-20T12:10:43;3.40;;;1.70;;
18082;SDS011;9168;51.194;6.840;2023-07-20T12:13:10;5.15;;;1.70;;
18082;SDS011;9168;51.194;6.840;2023-07-20T12:15:39;4.43;;;1.50;;
18082;SDS011;9168;51.194;6.840;2023-07-20T12:18:06;3.15;;;1.30;;
18082;SDS011;9168;51.194;6.840;2023-07-20T12:20:33;3.08;;;1.60;;
18082;SDS011;9168;51.194;6.840;2023-07-20T12:23:01;5.93;;;1.67;;
18082;SDS011;9168;51.194;6.840;2023-07-20T12:25:33;4.38;;;1.30;;
18082;SDS011;9168;51.194;6.840;2023-07-20T12:28:04;6.53;;;2.00;;
18082;SDS011;9168;51.194;6.840;2023-07-20T12:30:31;3.53;;;1.50;;
18082;SDS011;9168;51.194;6.840;2023-07-20T12:32:59;4.35;;;1.67;;
18082;SDS011;9168;51.194;6.840;2023-07-20T12:35:26;1.63;;;1.35;;
18082;SDS011;9168;51.194;6.840;2023-07-20T12:37:53;2.60;;;1.10;;
18082;SDS011;9168;51.194;6.840;2023-07-20T12:40:20;3.97;;;1.55;;
18082;SDS011;9168;51.194;6.840;2023-07-20T12:42:47;3.55;;;1.55;;
18082;SDS011;9168;51.194;6.840;2023-07-20T12:45:14;2.75;;;1.60;;
18082;SDS011;9168;51.194;6.840;2023-07-20T12:47:41;4.47;;;1.30;;
18082;SDS011;9168;51.194;6.840;2023-07-20T12:50:10;2.58;;;1.60;;
18082;SDS011;9168;51.194;6.840;2023-07-20T12:52:37;3.58;;;1.70;;
18082;SDS011;9168;51.194;6.840;2023-07-20T12:55:05;4.68;;;1.60;;
18082;SDS011;9168;51.194;6.840;2023-07-20T12:57:34;1.88;;;1.67;;
18082;SDS011;9168;51.194;6.840;2023-07-20T13:00:01;9.13;;;2.30;;
18082;SDS011;9168;51.194;6.840;2023-07-20T13:02:29;4.75;;;1.80;;
18082;SDS011;9168;51.194;6.840;2023-07-20T13:04:57;2.80;;;1.40;;
18082;SDS011;9168;51.194;6.840;2023-07-20T13:07:30;3.60;;;1.58;;
18082;SDS011;9168;51.194;6.840;2023-07-20T13:09:58;2.65;;;1.48;;
18082;SDS011;9168;51.194;6.840;2023-07-20T13:12:26;2.95;;;1.60;;
18082;SDS011;9168;51.194;6.840;2023-07-20T13:14:53;2.33;;;1.40;;
18082;SDS011;9168;51.194;6.840;2023-07-20T13:17:21;1.55;;;1.42;;
18082;SDS011;9168;51.194;6.840;2023-07-20T13:19:49;3.00;;;1.42;;
18082;SDS011;9168;51.194;6.840;2023-07-20T13:22:16;1.60;;;1.50;;
18082;SDS011;9168;51.194;6.840;2023-07-20T13:24:45;3.60;;;1.60;;
18082;SDS011;9168;51.194;6.840;2023-07-20T13:27:13;3.42;;;1.60;;
18082;SDS011;9168;51.194;6.840;2023-07-20T13:29:41;5.30;;;1.48;;
18082;SDS011;9168;51.194;6.840;2023-07-20T13:32:08;4.38;;;1.60;;
18082;SDS011;9168;51.194;6.840;2023-07-20T13:34:35;3.08;;;1.65;;
18082;SDS011;9168;51.194;6.840;2023-07-20T13:37:02;2.55;;;1.60;;
18082;SDS011;9168;51.194;6.840;2023-07-20T13:39:30;1.40;;;1.30;;
18082;SDS011;9168;51.194;6.840;2023-07-20T13:41:58;2.67;;;1.33;;
18082;SDS011;9168;51.194;6.840;2023-07-20T13:44:26;3.70;;;1.40;;
18082;SDS011;9168;51.194;6.840;2023-07-20T13:46:53;2.33;;;1.40;;
18082;SDS011;9168;51.194;6.840;2023-07-20T13:49:20;3.97;;;1.45;;
18082;SDS011;9168;51.194;6.840;2023-07-20T13:51:47;4.25;;;1.42;;
18082;SDS011;9168;51.194;6.840;2023-07-20T13:54:14;3.35;;;1.70;;
18082;SDS011;9168;51.194;6.840;2023-07-20T13:56:41;2.63;;;1.58;;
18082;SDS011;9168;51.194;6.840;2023-07-20T13:59:09;3.75;;;1.48;;
18082;SDS011;9168;51.194;6.840;2023-07-20T14:01:36;3.38;;;1.55;;
18082;SDS011;9168;51.194;6.840;2023-07-20T14:04:03;4.30;;;1.60;;
18082;SDS011;9168;51.194;6.840;2023-07-20T14:06:30;1.35;;;1.20;;
18082;SDS011;9168;51.194;6.840;2023-07-20T14:08:58;4.93;;;1.42;;
18082;SDS011;9168;51.194;6.840;2023-07-20T14:11:25;2.63;;;1.50;;
18082;SDS011;9168;51.194;6.840;2023-07-20T14:13:53;5.47;;;1.50;;
18082;SDS011;9168;51.194;6.840;2023-07-20T14:16:21;1.45;;;1.30;;
18082;SDS011;9168;51.194;6.840;2023-07-20T14:18:49;1.42;;;1.13;;
18082;SDS011;9168;51.194;6.840;2023-07-20T14:21:16;3.28;;;1.40;;
18082;SDS011;9168;51.194;6.840;2023-07-20T14:23:44;4.43;;;1.52;;
18082;SDS011;9168;51.194;6.840;2023-07-20T14:26:12;2.53;;;1.30;;
18082;SDS011;9168;51.194;6.840;2023-07-20T14:28:39;1.63;;;1.10;;
18082;SDS011;9168;51.194;6.840;2023-07-20T14:31:06;5.03;;;1.48;;
18082;SDS011;9168;51.194;6.840;2023-07-20T14:33:34;3.10;;;1.50;;
18082;SDS011;9168;51.194;6.840;2023-07-20T14:36:01;3.40;;;1.30;;
18082;SDS011;9168;51.194;6.840;2023-07-20T14:38:28;2.65;;;1.40;;
18082;SDS011;9168;51.194;6.840;2023-07-20T14:40:56;1.45;;;1.25;;
18082;SDS011;9168;51.194;6.840;2023-07-20T14:43:23;2.75;;;1.27;;
18082;SDS011;9168;51.194;6.840;2023-07-20T14:45:50;1.95;;;1.33;;
18082;SDS011;9168;51.194;6.840;2023-07-20T14:48:17;3.78;;;1.15;;
18082;SDS011;9168;51.194;6.840;2023-07-20T14:50:45;3.35;;;1.50;;
18082;SDS011;9168;51.194;6.840;2023-07-20T14:53:12;2.15;;;1.23;;
18082;SDS011;9168;51.194;6.840;2023-07-20T14:55:41;2.60;;;1.40;;
18082;SDS011;9168;51.194;6.840;2023-07-20T14:58:09;1.90;;;1.30;;
18082;SDS011;9168;51.194;6.840;2023-07-20T15:00:36;3.92;;;1.52;;
18082;SDS011;9168;51.194;6.840;2023-07-20T15:03:03;1.75;;;1.30;;
18082;SDS011;9168;51.194;6.840;2023-07-20T15:05:30;1.83;;;1.30;;